Time;durP1;ratioP1;P1;durP2;ratioP2;P2;SDS_P1;SDS_P2;PMS_P1;PMS_P2;Temp;Humidity;BMP_temperature;BMP_pressure;BME280_temperature;BME280_humidity;BME280_pressure;Samples;Min_cycle;Max_cycle;Signal;HPM_P1;HPM_P2
2022/04/21 00:00:01;;;;;;;9.50;5.87;;;;;;;;;;5071636;28;20052;-61
2022/04/21 00:02:27;;;;;;;9.63;5.67;;;;;;;;;;5071671;28;20406;-61
2022/04/21 00:04:53;;;;;;;13.80;6.03;;;;;;;;;;5087671;28;20125;-61
2022/04/21 00:07:19;;;;;;;13.93;7.43;;;;;;;;;;5071766;28;20068;-61
2022/04/21 00:09:45;;;;;;;11.50;6.17;;;;;;;;;;5071306;28;20106;-61
2022/04/21 00:12:11;;;;;;;11.00;6.27;;;;;;;;;;5071174;28;20091;-61
2022/04/21 00:14:37;;;;;;;11.87;6.53;;;;;;;;;;5071804;28;20044;-62
2022/04/21 00:17:03;;;;;;;14.93;7.27;;;;;;;;;;5071157;28;20048;-61
2022/04/21 00:19:29;;;;;;;11.03;6.37;;;;;;;;;;5071435;28;20040;-61
2022/04/21 00:24:50;;;;;;;10.37;7.10;;;;;;;;;;5068334;28;20143;-61
2022/04/21 00:27:17;;;;;;;13.80;7.40;;;;;;;;;;5071097;28;20052;-61
2022/04/21 00:29:44;;;;;;;9.83;6.27;;;;;;;;;;5070991;28;20047;-61
2022/04/21 00:32:10;;;;;;;10.87;6.93;;;;;;;;;;5070194;28;20495;-61
2022/04/21 00:34:37;;;;;;;12.93;7.07;;;;;;;;;;5069694;28;20047;-61
2022/04/21 00:37:03;;;;;;;12.93;7.30;;;;;;;;;;5069670;28;20056;-62
2022/04/21 00:39:33;;;;;;;11.97;7.00;;;;;;;;;;5069833;28;20048;-62
2022/04/21 00:42:00;;;;;;;11.03;6.53;;;;;;;;;;5069547;28;20450;-62
2022/04/21 00:44:26;;;;;;;11.93;6.70;;;;;;;;;;5069741;28;20052;-62
2022/04/21 00:46:53;;;;;;;11.17;7.17;;;;;;;;;;5070051;28;20415;-61
2022/04/21 00:49:21;;;;;;;12.23;7.70;;;;;;;;;;5069979;28;20044;-61
2022/04/21 00:51:47;;;;;;;14.80;7.73;;;;;;;;;;5069271;28;20079;-61
2022/04/21 00:54:13;;;;;;;15.17;6.87;;;;;;;;;;5069404;28;20075;-61
2022/04/21 00:56:40;;;;;;;14.87;7.50;;;;;;;;;;5069914;28;20041;-61
2022/04/21 00:59:06;;;;;;;12.37;8.07;;;;;;;;;;5069514;28;20706;-61
2022/04/21 01:04:19;;;;;;;12.80;7.93;;;;;;;;;;5069637;28;20080;-62
2022/04/21 01:06:45;;;;;;;14.23;8.70;;;;;;;;;;5069079;28;20052;-61
2022/04/21 01:09:11;;;;;;;13.17;8.00;;;;;;;;;;5069330;28;20075;-61
2022/04/21 01:11:38;;;;;;;14.90;7.90;;;;;;;;;;5069665;28;20110;-61
2022/04/21 01:14:04;;;;;;;16.10;8.57;;;;;;;;;;5069265;28;20105;-61
2022/04/21 01:16:30;;;;;;;13.53;8.77;;;;;;;;;;5069306;28;20051;-61
2022/04/21 01:18:56;;;;;;;16.43;9.07;;;;;;;;;;5069173;28;20059;-61
2022/04/21 01:21:22;;;;;;;13.60;8.27;;;;;;;;;;5068891;28;20503;-61
2022/04/21 01:23:48;;;;;;;14.63;9.10;;;;;;;;;;5068906;28;20072;-61
2022/04/21 01:26:15;;;;;;;14.83;8.40;;;;;;;;;;5069036;28;20044;-61
2022/04/21 01:28:41;;;;;;;14.37;8.40;;;;;;;;;;5068511;28;20048;-61
2022/04/21 01:31:07;;;;;;;16.03;8.03;;;;;;;;;;5068738;28;20045;-61
2022/04/21 01:33:33;;;;;;;17.53;8.57;;;;;;;;;;5068832;28;20047;-61
2022/04/21 01:35:59;;;;;;;18.40;8.27;;;;;;;;;;5068610;28;20054;-61
2022/04/21 01:41:11;;;;;;;15.23;8.90;;;;;;;;;;5068131;28;20060;-62
2022/04/21 01:43:37;;;;;;;17.27;9.07;;;;;;;;;;5068814;28;20060;-62
2022/04/21 01:46:04;;;;;;;17.77;9.30;;;;;;;;;;5068079;28;20043;-62
2022/04/21 01:48:30;;;;;;;15.37;9.63;;;;;;;;;;5068498;28;20036;-62
2022/04/21 01:50:56;;;;;;;18.00;10.00;;;;;;;;;;5069171;28;20131;-63
2022/04/21 01:53:22;;;;;;;15.80;8.93;;;;;;;;;;5068900;28;20041;-62
2022/04/21 01:55:48;;;;;;;16.80;8.97;;;;;;;;;;5068632;28;20044;-62
2022/04/21 01:58:14;;;;;;;17.20;9.50;;;;;;;;;;5068658;28;20321;-63
2022/04/21 02:00:40;;;;;;;19.70;9.93;;;;;;;;;;5068725;28;20201;-63
2022/04/21 02:03:06;;;;;;;18.80;9.23;;;;;;;;;;5068891;28;20084;-62
2022/04/21 02:05:33;;;;;;;18.80;9.60;;;;;;;;;;5068281;28;20072;-62
2022/04/21 02:08:00;;;;;;;19.90;10.17;;;;;;;;;;5068790;28;20040;-62
2022/04/21 02:10:26;;;;;;;18.07;9.07;;;;;;;;;;5068438;28;20048;-62
2022/04/21 02:12:52;;;;;;;21.07;10.43;;;;;;;;;;5068638;28;20041;-62
2022/04/21 02:15:18;;;;;;;18.83;10.37;;;;;;;;;;5068752;28;20137;-62
2022/04/21 02:17:45;;;;;;;18.67;8.97;;;;;;;;;;5054143;28;20388;-62
2022/04/21 02:20:14;;;;;;;16.80;9.60;;;;;;;;;;5048012;28;20462;-62
2022/04/21 02:22:40;;;;;;;22.40;10.50;;;;;;;;;;5048722;28;20059;-62
2022/04/21 02:25:07;;;;;;;19.50;11.20;;;;;;;;;;5048120;28;20036;-62
2022/04/21 02:27:33;;;;;;;18.17;10.13;;;;;;;;;;5048282;28;20072;-62
2022/04/21 02:29:59;;;;;;;20.07;10.30;;;;;;;;;;5048408;28;20052;-62
2022/04/21 02:32:26;;;;;;;23.03;11.97;;;;;;;;;;5064420;28;20049;-62
2022/04/21 02:34:53;;;;;;;22.73;11.93;;;;;;;;;;5066967;28;20097;-62
2022/04/21 02:37:21;;;;;;;19.33;10.50;;;;;;;;;;5068152;28;20084;-62
2022/04/21 02:39:47;;;;;;;18.90;11.13;;;;;;;;;;5068475;28;20052;-62
2022/04/21 02:42:13;;;;;;;24.10;12.57;;;;;;;;;;5068616;28;20127;-62
2022/04/21 02:44:39;;;;;;;20.50;11.07;;;;;;;;;;5068127;28;20124;-62
2022/04/21 02:47:07;;;;;;;29.00;13.07;;;;;;;;;;5068004;28;20045;-62
2022/04/21 02:49:35;;;;;;;20.60;11.20;;;;;;;;;;5067936;28;20573;-62
2022/04/21 02:52:01;;;;;;;19.00;11.57;;;;;;;;;;5067883;28;20052;-62
2022/04/21 02:57:21;;;;;;;18.83;11.37;;;;;;;;;;5071299;28;20057;-62
2022/04/21 02:59:48;;;;;;;26.43;13.40;;;;;;;;;;5070440;28;20399;-62
2022/04/21 03:02:14;;;;;;;22.00;12.03;;;;;;;;;;5071681;28;20503;-62
2022/04/21 03:04:40;;;;;;;26.10;13.80;;;;;;;;;;5071810;28;20044;-63
2022/04/21 03:07:06;;;;;;;24.13;12.40;;;;;;;;;;5071776;28;20047;-62
2022/04/21 03:09:32;;;;;;;26.63;14.27;;;;;;;;;;5071243;28;20091;-62
2022/04/21 03:12:05;;;;;;;23.13;13.10;;;;;;;;;;5072136;28;20098;-62
2022/04/21 03:14:31;;;;;;;26.58;14.23;;;;;;;;;;5071549;28;20094;-62
2022/04/21 03:16:58;;;;;;;29.13;13.60;;;;;;;;;;5071742;28;20033;-62
2022/04/21 03:19:24;;;;;;;25.47;14.27;;;;;;;;;;5071036;28;20080;-62
2022/04/21 03:24:35;;;;;;;29.67;14.57;;;;;;;;;;5071293;28;20514;-62
2022/04/21 03:27:02;;;;;;;25.33;13.80;;;;;;;;;;5071195;28;20128;-62
2022/04/21 03:29:29;;;;;;;27.20;15.00;;;;;;;;;;5070836;28;20410;-62
2022/04/21 03:31:55;;;;;;;28.63;14.13;;;;;;;;;;5071377;28;20609;-62
2022/04/21 03:34:21;;;;;;;27.80;15.00;;;;;;;;;;5071599;28;20139;-62
2022/04/21 03:36:47;;;;;;;27.30;14.80;;;;;;;;;;5071052;28;20048;-62
2022/04/21 03:39:14;;;;;;;33.00;15.57;;;;;;;;;;5070653;28;20048;-62
2022/04/21 03:41:40;;;;;;;33.53;16.80;;;;;;;;;;5071158;28;20049;-62
2022/04/21 03:44:06;;;;;;;33.77;16.83;;;;;;;;;;5071069;28;20044;-62
2022/04/21 03:46:32;;;;;;;28.93;14.77;;;;;;;;;;5070698;28;20059;-62
2022/04/21 03:48:59;;;;;;;32.23;15.60;;;;;;;;;;5071335;28;20106;-62
2022/04/21 03:51:28;;;;;;;31.57;16.00;;;;;;;;;;5071343;28;20735;-62
2022/04/21 03:53:54;;;;;;;27.47;14.23;;;;;;;;;;5071314;28;20036;-62
2022/04/21 03:56:21;;;;;;;30.37;14.57;;;;;;;;;;5071767;28;20123;-62
2022/04/21 03:58:47;;;;;;;34.00;16.87;;;;;;;;;;5078732;28;20055;-62
2022/04/21 04:01:14;;;;;;;35.00;16.07;;;;;;;;;;5078801;28;20048;-62
2022/04/21 04:03:40;;;;;;;33.67;16.27;;;;;;;;;;5072924;28;20055;-62
2022/04/21 04:10:51;;;;;;;31.90;16.00;;;;;;;;;;5069092;28;20044;-62
2022/04/21 04:11:37;;;;;;;36.17;18.50;;;;;;;;;;5071036;28;20048;-62
2022/04/21 04:14:05;;;;;;;38.43;17.00;;;;;;;;;;5070380;28;20414;-62
2022/04/21 04:16:33;;;;;;;34.90;16.87;;;;;;;;;;5070330;28;20218;-62
2022/04/21 04:19:00;;;;;;;37.93;18.37;;;;;;;;;;5070253;28;20098;-62
2022/04/21 04:21:26;;;;;;;37.73;17.50;;;;;;;;;;5070689;28;20063;-62
2022/04/21 04:23:52;;;;;;;30.37;16.50;;;;;;;;;;5070751;28;20045;-62
2022/04/21 04:26:18;;;;;;;36.53;17.67;;;;;;;;;;5070254;28;20047;-63
2022/04/21 04:28:44;;;;;;;32.10;16.73;;;;;;;;;;5070215;28;20076;-62
2022/04/21 04:31:10;;;;;;;36.53;18.33;;;;;;;;;;5070000;28;20426;-62
2022/04/21 04:33:36;;;;;;;37.87;18.63;;;;;;;;;;5069319;28;20041;-62
2022/04/21 04:36:02;;;;;;;35.63;18.50;;;;;;;;;;5069989;28;20044;-62
2022/04/21 04:38:28;;;;;;;36.03;18.20;;;;;;;;;;5069646;28;20075;-62
2022/04/21 04:40:54;;;;;;;40.57;19.70;;;;;;;;;;5069673;28;20088;-62
2022/04/21 04:43:20;;;;;;;40.87;17.93;;;;;;;;;;5070265;28;20052;-62
2022/04/21 04:48:30;;;;;;;34.50;17.17;;;;;;;;;;5078480;28;20053;-62
2022/04/21 04:50:56;;;;;;;35.20;18.97;;;;;;;;;;5080272;28;20043;-62
2022/04/21 04:53:22;;;;;;;37.07;17.60;;;;;;;;;;5089575;28;20044;-62
2022/04/21 04:55:48;;;;;;;37.93;18.73;;;;;;;;;;5089668;28;20040;-62
2022/04/21 04:58:14;;;;;;;34.43;18.10;;;;;;;;;;5089644;28;20181;-63
2022/04/21 05:00:40;;;;;;;34.20;19.00;;;;;;;;;;5087260;28;20055;-63
2022/04/21 05:03:06;;;;;;;36.30;19.33;;;;;;;;;;5069393;28;20047;-62
2022/04/21 05:05:32;;;;;;;36.80;19.53;;;;;;;;;;5069160;28;20049;-62
2022/04/21 05:07:59;;;;;;;144.53;33.57;;;;;;;;;;5069339;28;20102;-62
2022/04/21 05:10:28;;;;;;;36.83;18.90;;;;;;;;;;5068779;28;20052;-62
2022/04/21 05:12:54;;;;;;;33.13;18.20;;;;;;;;;;5069508;28;20049;-62
2022/04/21 05:15:20;;;;;;;35.20;18.83;;;;;;;;;;5068859;28;20052;-62
2022/04/21 05:17:46;;;;;;;35.57;18.90;;;;;;;;;;5068176;28;20510;-62
2022/04/21 05:20:13;;;;;;;35.93;19.77;;;;;;;;;;5068512;28;20083;-62
2022/04/21 05:22:40;;;;;;;38.00;19.07;;;;;;;;;;5069177;28;20044;-63
2022/04/21 05:25:09;;;;;;;37.23;21.03;;;;;;;;;;5069303;28;20048;-62
2022/04/21 05:27:36;;;;;;;34.90;17.90;;;;;;;;;;5068601;28;20040;-62
2022/04/21 05:32:49;;;;;;;32.80;17.23;;;;;;;;;;5068687;28;20497;-63
2022/04/21 05:35:16;;;;;;;28.70;16.20;;;;;;;;;;5068974;28;20076;-63
2022/04/21 05:37:42;;;;;;;26.90;16.40;;;;;;;;;;5068874;28;20106;-63
2022/04/21 05:40:08;;;;;;;33.43;16.73;;;;;;;;;;5068928;28;20044;-63
2022/04/21 05:42:38;;;;;;;29.43;17.50;;;;;;;;;;5070048;28;20041;-63
2022/04/21 05:45:05;;;;;;;31.17;17.33;;;;;;;;;;5083691;28;20043;-64
2022/04/21 05:47:32;;;;;;;29.77;16.60;;;;;;;;;;5068201;28;20044;-63
2022/04/21 05:49:58;;;;;;;35.67;19.60;;;;;;;;;;5068567;28;20052;-63
2022/04/21 05:52:27;;;;;;;29.77;17.30;;;;;;;;;;5068154;28;20503;-63
2022/04/21 05:54:53;;;;;;;31.97;18.37;;;;;;;;;;5068329;28;20373;-66
2022/04/21 05:57:19;;;;;;;36.13;19.10;;;;;;;;;;5068198;28;20612;-63
2022/04/21 05:59:45;;;;;;;25.23;16.63;;;;;;;;;;5068653;28;20406;-63
2022/04/21 06:02:11;;;;;;;34.53;19.23;;;;;;;;;;5076016;28;20044;-63
2022/04/21 06:04:38;;;;;;;38.70;19.03;;;;;;;;;;5075828;28;20426;-63
2022/04/21 06:07:05;;;;;;;32.23;16.97;;;;;;;;;;5072756;28;20044;-63
2022/04/21 06:09:31;;;;;;;29.83;16.70;;;;;;;;;;5076848;28;20044;-63
2022/04/21 06:11:58;;;;;;;29.07;16.97;;;;;;;;;;5078098;28;20036;-63
2022/04/21 06:14:24;;;;;;;22.37;14.23;;;;;;;;;;5074141;28;20092;-63
2022/04/21 06:16:50;;;;;;;26.20;15.37;;;;;;;;;;5076829;28;20051;-63
2022/04/21 06:19:16;;;;;;;28.67;17.63;;;;;;;;;;5078584;28;20040;-63
2022/04/21 06:21:42;;;;;;;26.03;15.80;;;;;;;;;;5078629;28;20032;-63
2022/04/21 06:24:09;;;;;;;26.00;14.70;;;;;;;;;;5077105;28;20028;-63
2022/04/21 06:26:36;;;;;;;23.90;14.37;;;;;;;;;;5068162;28;20044;-63
2022/04/21 06:29:02;;;;;;;25.37;13.80;;;;;;;;;;5069874;28;20503;-63
2022/04/21 06:31:29;;;;;;;22.20;12.63;;;;;;;;;;5071811;28;20047;-63
2022/04/21 06:33:55;;;;;;;21.77;14.13;;;;;;;;;;5075582;28;20454;-63
2022/04/21 06:36:21;;;;;;;23.43;13.23;;;;;;;;;;5079769;28;20052;-63
2022/04/21 06:38:47;;;;;;;20.83;13.27;;;;;;;;;;5082253;28;20118;-63
2022/04/21 06:41:13;;;;;;;17.43;11.67;;;;;;;;;;5070904;28;20655;-63
2022/04/21 06:49:08;;;;;;;18.37;11.60;;;;;;;;;;5078539;28;20379;-63
2022/04/21 06:51:34;;;;;;;16.57;10.97;;;;;;;;;;5076368;28;20048;-63
2022/04/21 06:54:00;;;;;;;17.20;9.73;;;;;;;;;;5079995;28;20123;-63
2022/04/21 06:56:27;;;;;;;15.87;9.57;;;;;;;;;;5076280;28;20551;-63
2022/04/21 06:58:53;;;;;;;13.20;7.33;;;;;;;;;;5081953;28;20044;-63
2022/04/21 07:01:19;;;;;;;11.20;7.20;;;;;;;;;;5077573;28;20044;-63
2022/04/21 07:03:45;;;;;;;10.17;6.37;;;;;;;;;;5069528;28;20494;-63
2022/04/21 07:06:12;;;;;;;10.83;6.13;;;;;;;;;;5066558;28;20105;-62
2022/04/21 07:08:38;;;;;;;10.43;6.70;;;;;;;;;;5073864;28;20085;-64
2022/04/21 07:11:04;;;;;;;8.93;6.37;;;;;;;;;;5083165;28;20115;-63
2022/04/21 07:13:30;;;;;;;9.27;6.40;;;;;;;;;;5076288;28;20410;-63
2022/04/21 07:15:56;;;;;;;10.80;6.50;;;;;;;;;;5069795;28;20542;-63
2022/04/21 07:18:22;;;;;;;10.00;6.73;;;;;;;;;;5070456;28;20087;-63
2022/04/21 07:20:48;;;;;;;10.53;6.27;;;;;;;;;;5070797;28;20048;-63
2022/04/21 07:23:14;;;;;;;11.63;5.83;;;;;;;;;;5070308;28;20043;-63
2022/04/21 07:25:42;;;;;;;10.07;5.43;;;;;;;;;;5070510;28;20037;-63
2022/04/21 07:28:08;;;;;;;8.93;5.30;;;;;;;;;;5070756;28;20048;-63
2022/04/21 07:30:34;;;;;;;8.37;4.80;;;;;;;;;;5067827;28;20044;-63
2022/04/21 07:33:00;;;;;;;10.10;4.83;;;;;;;;;;5050815;28;20106;-63
2022/04/21 07:35:26;;;;;;;7.80;4.60;;;;;;;;;;5058235;28;20040;-63
2022/04/21 07:37:52;;;;;;;10.47;4.50;;;;;;;;;;5069158;28;20068;-63
2022/04/21 07:40:20;;;;;;;5.60;4.23;;;;;;;;;;5068514;28;20151;-63
2022/04/21 07:42:46;;;;;;;6.83;4.20;;;;;;;;;;5070606;28;20095;-63
2022/04/21 07:45:13;;;;;;;7.20;3.77;;;;;;;;;;5070510;28;20067;-63
2022/04/21 07:47:40;;;;;;;5.30;3.37;;;;;;;;;;5069948;28;20418;-62
2022/04/21 07:50:06;;;;;;;4.20;2.93;;;;;;;;;;5069838;28;20080;-63
2022/04/21 07:55:19;;;;;;;4.80;2.67;;;;;;;;;;5070041;28;20057;-63
2022/04/21 07:57:46;;;;;;;4.63;3.53;;;;;;;;;;5070259;28;20048;-63
2022/04/21 08:00:14;;;;;;;5.50;2.70;;;;;;;;;;5068603;28;20040;-63
2022/04/21 08:02:41;;;;;;;7.27;2.93;;;;;;;;;;5069826;28;20036;-63
2022/04/21 08:05:08;;;;;;;5.83;2.33;;;;;;;;;;5076591;28;20040;-63
2022/04/21 08:07:34;;;;;;;7.50;2.80;;;;;;;;;;5081555;28;20040;-63
2022/04/21 08:10:01;;;;;;;7.43;2.27;;;;;;;;;;5083194;28;20559;-63
2022/04/21 08:12:28;;;;;;;4.23;2.30;;;;;;;;;;5069248;28;20047;-63
2022/04/21 08:14:54;;;;;;;6.63;2.53;;;;;;;;;;5069866;28;20048;-64
2022/04/21 08:17:20;;;;;;;3.50;2.13;;;;;;;;;;5069426;28;20560;-63
2022/04/21 08:19:45;;;;;;;3.90;2.33;;;;;;;;;;5069841;28;20102;-63
2022/04/21 08:22:12;;;;;;;6.73;2.40;;;;;;;;;;5069699;28;20471;-63
2022/04/21 08:32:52;;;;;;;3.67;2.17;;;;;;;;;;5069791;28;20399;-63
2022/04/21 08:35:19;;;;;;;6.33;2.17;;;;;;;;;;5068152;28;20048;-62
2022/04/21 08:37:45;;;;;;;4.37;2.10;;;;;;;;;;5068245;28;20123;-62
2022/04/21 08:40:11;;;;;;;5.40;1.90;;;;;;;;;;5068707;28;20871;-62
2022/04/21 08:42:39;;;;;;;5.87;2.47;;;;;;;;;;5067980;28;20059;-63
2022/04/21 08:45:06;;;;;;;4.93;2.53;;;;;;;;;;5069658;28;20080;-62
2022/04/21 08:47:32;;;;;;;5.80;2.20;;;;;;;;;;5067560;28;20048;-63
2022/04/21 08:50:05;;;;;;;6.63;2.30;;;;;;;;;;5068460;28;20044;-63
2022/04/21 08:52:33;;;;;;;6.82;2.33;;;;;;;;;;5069076;28;20044;-63
2022/04/21 08:54:59;;;;;;;3.67;2.27;;;;;;;;;;5069146;28;20040;-63
2022/04/21 08:57:25;;;;;;;6.17;2.20;;;;;;;;;;5068958;28;20049;-63
2022/04/21 08:59:51;;;;;;;3.93;2.17;;;;;;;;;;5069031;28;20059;-63
2022/04/21 09:02:18;;;;;;;3.33;2.00;;;;;;;;;;5067374;28;20326;-63
2022/04/21 09:04:44;;;;;;;4.10;2.13;;;;;;;;;;5068985;28;20045;-63
2022/04/21 09:07:21;;;;;;;7.97;2.13;;;;;;;;;;5067897;28;20045;-63
2022/04/21 09:10:03;;;;;;;3.43;1.90;;;;;;;;;;5065067;28;20132;-63
2022/04/21 09:12:29;;;;;;;4.30;2.30;;;;;;;;;;5068804;28;20392;-63
2022/04/21 09:14:57;;;;;;;5.63;2.07;;;;;;;;;;5058738;28;20696;-63
2022/04/21 09:17:23;;;;;;;3.80;1.80;;;;;;;;;;5048556;28;20052;-63
2022/04/21 09:19:59;;;;;;;8.63;2.03;;;;;;;;;;5048181;28;20084;-63
2022/04/21 09:22:26;;;;;;;4.67;2.00;;;;;;;;;;5048615;28;20052;-62
2022/04/21 09:24:56;;;;;;;6.10;1.93;;;;;;;;;;5058127;28;20504;-62
2022/04/21 09:27:22;;;;;;;4.23;1.97;;;;;;;;;;5068626;28;20041;-63
2022/04/21 09:29:50;;;;;;;7.70;2.10;;;;;;;;;;5069775;28;20066;-63
2022/04/21 09:32:20;;;;;;;6.20;2.10;;;;;;;;;;5068730;28;20080;-63
2022/04/21 09:34:50;;;;;;;4.30;1.80;;;;;;;;;;5069505;28;20079;-62
2022/04/21 09:37:22;;;;;;;4.67;1.80;;;;;;;;;;5069324;28;20065;-63
2022/04/21 09:39:52;;;;;;;10.55;2.15;;;;;;;;;;5068432;28;20494;-63
2022/04/21 09:42:28;;;;;;;4.57;2.23;;;;;;;;;;5069359;28;20044;-63
2022/04/21 09:47:49;;;;;;;3.73;1.53;;;;;;;;;;5068668;28;20052;-63
2022/04/21 09:50:15;;;;;;;6.57;2.40;;;;;;;;;;5068600;28;20431;-63
2022/04/21 09:53:03;;;;;;;6.80;2.20;;;;;;;;;;5066513;28;20178;-64
2022/04/21 09:55:34;;;;;;;5.20;2.07;;;;;;;;;;5066210;28;20426;-64
2022/04/21 09:58:06;;;;;;;6.27;2.53;;;;;;;;;;5065620;28;20055;-64
2022/04/21 10:00:33;;;;;;;5.60;2.07;;;;;;;;;;5063734;28;20053;-63
2022/04/21 10:03:00;;;;;;;3.03;2.00;;;;;;;;;;5060595;28;20109;-63
2022/04/21 10:05:26;;;;;;;3.73;1.73;;;;;;;;;;5066977;28;20049;-63
2022/04/21 10:07:53;;;;;;;8.07;2.20;;;;;;;;;;5067126;28;20044;-64
2022/04/21 10:10:19;;;;;;;3.27;2.00;;;;;;;;;;5067422;28;20041;-63
2022/04/21 10:12:46;;;;;;;3.53;1.93;;;;;;;;;;5067350;28;20052;-63
2022/04/21 10:15:12;;;;;;;6.20;2.20;;;;;;;;;;5067848;28;20099;-63
2022/04/21 10:17:39;;;;;;;2.70;1.60;;;;;;;;;;5067927;28;20056;-63
2022/04/21 10:20:05;;;;;;;3.90;1.57;;;;;;;;;;5066925;28;20440;-63
2022/04/21 10:22:33;;;;;;;4.30;1.77;;;;;;;;;;5068271;28;20049;-63
2022/04/21 10:24:59;;;;;;;5.50;1.73;;;;;;;;;;5068876;28;20411;-63
2022/04/21 10:27:46;;;;;;;4.13;1.83;;;;;;;;;;5068716;28;20044;-63
2022/04/21 10:30:21;;;;;;;4.13;1.83;;;;;;;;;;5068443;28;20102;-63
2022/04/21 10:32:50;;;;;;;5.17;1.60;;;;;;;;;;5069079;28;20132;-63
2022/04/21 10:35:20;;;;;;;4.60;1.97;;;;;;;;;;5065293;28;20040;-63
2022/04/21 10:37:46;;;;;;;3.53;2.17;;;;;;;;;;5067760;28;20091;-63
2022/04/21 10:40:18;;;;;;;4.00;2.03;;;;;;;;;;5087669;28;20080;-63
2022/04/21 10:42:58;;;;;;;5.00;1.90;;;;;;;;;;5074242;28;20049;-63
2022/04/21 10:45:27;;;;;;;2.93;1.80;;;;;;;;;;5068279;28;20776;-63
2022/04/21 10:48:08;;;;;;;4.20;1.73;;;;;;;;;;5068323;28;20498;-63
2022/04/21 10:50:35;;;;;;;2.83;1.73;;;;;;;;;;5067917;28;20098;-63
2022/04/21 10:58:34;;;;;;;7.80;2.28;;;;;;;;;;5067721;28;20057;-63
2022/04/21 11:01:09;;;;;;;2.83;1.43;;;;;;;;;;5067675;28;20124;-63
2022/04/21 11:03:36;;;;;;;4.30;1.88;;;;;;;;;;5066884;28;20487;-63
2022/04/21 11:06:20;;;;;;;3.83;1.83;;;;;;;;;;5067667;28;20127;-63
2022/04/21 11:08:46;;;;;;;4.00;1.70;;;;;;;;;;5067144;28;20055;-63
2022/04/21 11:11:13;;;;;;;7.95;1.70;;;;;;;;;;5067732;28;20108;-63
2022/04/21 11:13:50;;;;;;;4.05;1.75;;;;;;;;;;5049617;28;20059;-63
2022/04/21 11:16:34;;;;;;;2.55;1.58;;;;;;;;;;5050345;28;20080;-63
2022/04/21 11:19:19;;;;;;;2.55;1.80;;;;;;;;;;5056019;28;20049;-63
2022/04/21 11:21:54;;;;;;;3.90;1.80;;;;;;;;;;5071677;28;20866;-63
2022/04/21 11:24:20;;;;;;;5.07;1.55;;;;;;;;;;5071194;28;20095;-63
2022/04/21 11:26:53;;;;;;;4.15;1.88;;;;;;;;;;5071803;28;20083;-63
2022/04/21 11:29:19;;;;;;;3.50;1.95;;;;;;;;;;5071374;28;20044;-63
2022/04/21 11:31:45;;;;;;;3.10;1.63;;;;;;;;;;5071527;28;20047;-63
2022/04/21 11:34:11;;;;;;;6.28;2.00;;;;;;;;;;5070970;28;20495;-63
2022/04/21 11:36:41;;;;;;;6.13;1.60;;;;;;;;;;5071186;28;20057;-63
2022/04/21 11:39:07;;;;;;;4.70;1.90;;;;;;;;;;5071468;28;20053;-62
2022/04/21 11:41:34;;;;;;;3.97;2.28;;;;;;;;;;5070670;28;20044;-62
2022/04/21 11:44:01;;;;;;;3.35;1.40;;;;;;;;;;5060335;28;20041;-62
2022/04/21 11:46:27;;;;;;;2.88;1.67;;;;;;;;;;5051196;28;20400;-62
2022/04/21 11:49:00;;;;;;;5.30;2.50;;;;;;;;;;5056737;28;20044;-62
2022/04/21 11:51:27;;;;;;;2.83;1.90;;;;;;;;;;5071243;28;20055;-62
2022/04/21 11:53:55;;;;;;;4.93;1.67;;;;;;;;;;5070891;28;20048;-62
2022/04/21 11:56:21;;;;;;;4.75;2.05;;;;;;;;;;5071079;28;20045;-62
2022/04/21 11:58:48;;;;;;;4.38;2.17;;;;;;;;;;5070791;28;20125;-62
2022/04/21 12:06:47;;;;;;;5.57;2.67;;;;;;;;;;5069915;28;20044;-63
2022/04/21 12:09:14;;;;;;;2.40;1.70;;;;;;;;;;5070286;28;20040;-63
2022/04/21 12:11:41;;;;;;;3.80;1.90;;;;;;;;;;5070801;28;20052;-63
2022/04/21 12:14:07;;;;;;;3.78;1.95;;;;;;;;;;5070810;28;20084;-63
2022/04/21 12:16:41;;;;;;;5.25;1.88;;;;;;;;;;5070358;28;20048;-63
2022/04/21 12:19:17;;;;;;;4.18;2.40;;;;;;;;;;5070317;28;20048;-63
2022/04/21 12:21:44;;;;;;;4.07;2.58;;;;;;;;;;5070108;28;20456;-63
2022/04/21 12:24:17;;;;;;;4.80;2.10;;;;;;;;;;5070329;28;20089;-63
2022/04/21 12:26:50;;;;;;;5.22;2.55;;;;;;;;;;5070331;28;20598;-63
2022/04/21 12:29:16;;;;;;;3.78;1.83;;;;;;;;;;5069326;28;20044;-63
2022/04/21 12:31:53;;;;;;;3.40;2.20;;;;;;;;;;5070366;28;20086;-63
2022/04/21 12:34:22;;;;;;;4.40;2.45;;;;;;;;;;5070129;28;20044;-63
2022/04/21 12:37:07;;;;;;;6.75;2.72;;;;;;;;;;5061367;28;20056;-63
2022/04/21 12:39:33;;;;;;;4.82;2.70;;;;;;;;;;5049804;28;20115;-63
2022/04/21 12:42:01;;;;;;;7.63;2.40;;;;;;;;;;5050081;28;20052;-63
2022/04/21 12:44:27;;;;;;;6.63;3.33;;;;;;;;;;5049814;28;20045;-63
2022/04/21 12:46:57;;;;;;;6.32;2.92;;;;;;;;;;5049990;28;20172;-63
2022/04/21 12:49:24;;;;;;;4.47;2.90;;;;;;;;;;5049668;28;20048;-63
2022/04/21 12:51:50;;;;;;;7.97;2.55;;;;;;;;;;5049906;28;20040;-63
2022/04/21 12:54:26;;;;;;;3.65;2.35;;;;;;;;;;5049726;28;20049;-63
2022/04/21 12:56:55;;;;;;;4.60;2.50;;;;;;;;;;5054738;28;20453;-63
2022/04/21 12:59:22;;;;;;;5.65;3.08;;;;;;;;;;5069012;28;20506;-63
2022/04/21 13:01:48;;;;;;;6.80;2.88;;;;;;;;;;5070085;28;20036;-63
2022/04/21 13:04:14;;;;;;;5.45;3.00;;;;;;;;;;5069501;28;20417;-63
2022/04/21 13:06:43;;;;;;;8.95;3.22;;;;;;;;;;5069293;28;20047;-63
2022/04/21 13:09:09;;;;;;;5.55;3.20;;;;;;;;;;5069224;28;20051;-63
2022/04/21 13:11:35;;;;;;;7.72;2.92;;;;;;;;;;5069360;28;20044;-63
2022/04/21 13:14:01;;;;;;;4.20;2.70;;;;;;;;;;5069051;28;20040;-63
2022/04/21 13:16:27;;;;;;;5.78;2.30;;;;;;;;;;5069250;28;20036;-63
2022/04/21 13:18:55;;;;;;;4.75;2.88;;;;;;;;;;5069083;28;20047;-63
2022/04/21 13:24:07;;;;;;;10.98;3.20;;;;;;;;;;5069164;28;20573;-63
2022/04/21 13:26:33;;;;;;;6.00;2.38;;;;;;;;;;5068512;28;20040;-63
2022/04/21 13:28:59;;;;;;;4.22;2.40;;;;;;;;;;5068453;28;20045;-63
2022/04/21 13:34:10;;;;;;;5.30;2.40;;;;;;;;;;5049070;28;20139;-63
2022/04/21 13:36:38;;;;;;;6.75;3.00;;;;;;;;;;5048101;28;20091;-64
2022/04/21 13:39:04;;;;;;;5.85;2.78;;;;;;;;;;5048964;28;20049;-63
2022/04/21 13:41:30;;;;;;;4.05;2.20;;;;;;;;;;5048837;28;20040;-63
2022/04/21 13:43:56;;;;;;;3.17;2.35;;;;;;;;;;5048978;28;20037;-63
2022/04/21 13:46:22;;;;;;;6.13;2.60;;;;;;;;;;5048859;28;20041;-63
2022/04/21 13:48:48;;;;;;;7.95;2.85;;;;;;;;;;5049117;28;20076;-63
2022/04/21 13:51:15;;;;;;;5.50;2.50;;;;;;;;;;5048529;28;20097;-63
2022/04/21 13:53:41;;;;;;;3.90;2.80;;;;;;;;;;5049011;28;20048;-62
2022/04/21 13:56:07;;;;;;;5.95;3.08;;;;;;;;;;5048798;28;20041;-62
2022/04/21 13:58:34;;;;;;;5.85;2.55;;;;;;;;;;5060613;28;20429;-63
2022/04/21 14:01:00;;;;;;;7.57;3.15;;;;;;;;;;5068791;28;20046;-64
2022/04/21 14:03:26;;;;;;;6.95;2.90;;;;;;;;;;5069107;28;20059;-63
2022/04/21 14:05:52;;;;;;;5.35;2.70;;;;;;;;;;5068208;28;20087;-64
2022/04/21 14:08:19;;;;;;;3.47;2.83;;;;;;;;;;5068865;28;20503;-63
2022/04/21 14:10:45;;;;;;;4.68;3.08;;;;;;;;;;5068734;28;20521;-63
2022/04/21 14:13:11;;;;;;;6.07;3.30;;;;;;;;;;5068640;28;20139;-63
2022/04/21 14:15:38;;;;;;;5.65;2.60;;;;;;;;;;5068226;28;20048;-63
2022/04/21 14:18:04;;;;;;;4.82;3.00;;;;;;;;;;5067731;28;20192;-64
2022/04/21 14:20:30;;;;;;;6.22;2.60;;;;;;;;;;5067867;28;20044;-64
2022/04/21 14:22:56;;;;;;;4.95;2.85;;;;;;;;;;5067378;28;20048;-63
2022/04/21 14:25:22;;;;;;;5.25;2.58;;;;;;;;;;5068002;28;20056;-63
2022/04/21 14:27:48;;;;;;;7.35;2.85;;;;;;;;;;5068436;28;20045;-64
2022/04/21 14:30:14;;;;;;;4.85;2.70;;;;;;;;;;5068022;28;20109;-63
2022/04/21 14:32:41;;;;;;;4.82;2.70;;;;;;;;;;5068466;28;20059;-63
2022/04/21 14:35:08;;;;;;;7.25;2.97;;;;;;;;;;5071719;28;20092;-63
2022/04/21 14:45:49;;;;;;;4.43;3.03;;;;;;;;;;5075180;28;20395;-63
2022/04/21 14:48:15;;;;;;;7.22;3.20;;;;;;;;;;5076391;28;20750;-63
2022/04/21 14:50:41;;;;;;;9.50;2.90;;;;;;;;;;5080898;28;20040;-63
2022/04/21 14:53:07;;;;;;;5.43;2.67;;;;;;;;;;5080736;28;20553;-63
2022/04/21 14:55:33;;;;;;;6.15;3.20;;;;;;;;;;5080935;28;20044;-63
2022/04/21 14:57:59;;;;;;;5.53;2.42;;;;;;;;;;5079362;28;20101;-63
2022/04/21 15:00:26;;;;;;;6.85;2.78;;;;;;;;;;5079736;28;20602;-64
2022/04/21 15:02:54;;;;;;;6.60;3.83;;;;;;;;;;5079795;28;20505;-63
2022/04/21 15:05:20;;;;;;;8.50;3.20;;;;;;;;;;5080878;28;20075;-64
2022/04/21 15:07:46;;;;;;;6.20;3.40;;;;;;;;;;5076870;28;20043;-64
2022/04/21 15:10:12;;;;;;;6.80;3.17;;;;;;;;;;5079659;28;20091;-64
2022/04/21 15:12:38;;;;;;;5.22;3.63;;;;;;;;;;5070789;28;20036;-63
2022/04/21 15:15:07;;;;;;;8.52;3.45;;;;;;;;;;5082896;28;20036;-63
2022/04/21 15:17:33;;;;;;;6.82;3.58;;;;;;;;;;5070518;28;20407;-63
2022/04/21 15:19:59;;;;;;;4.65;3.10;;;;;;;;;;5070295;28;20051;-63
2022/04/21 15:22:25;;;;;;;5.85;3.30;;;;;;;;;;5070867;28;20048;-63
2022/04/21 15:24:52;;;;;;;8.10;2.90;;;;;;;;;;5070683;28;20059;-63
2022/04/21 15:27:19;;;;;;;6.28;2.70;;;;;;;;;;5069064;28;20084;-63
2022/04/21 15:29:46;;;;;;;4.50;2.65;;;;;;;;;;5074922;28;20044;-63
2022/04/21 15:32:13;;;;;;;8.18;2.85;;;;;;;;;;5071263;28;20445;-63
2022/04/21 15:34:39;;;;;;;4.72;2.85;;;;;;;;;;5068482;28;20044;-63
2022/04/21 15:37:07;;;;;;;5.80;2.78;;;;;;;;;;5070734;28;20059;-63
2022/04/21 15:39:34;;;;;;;3.92;2.72;;;;;;;;;;5070520;28;20098;-63